sensor_id;sensor_type;location;lat;lon;timestamp;P1;durP1;ratioP1;P2;durP2;ratioP2
34549;SDS011;66080;52.078;5.626;2023-10-09T00:00:11;27.75;;;15.85;;
34549;SDS011;66080;52.078;5.626;2023-10-09T00:02:56;27.83;;;14.07;;
34549;SDS011;66080;52.078;5.626;2023-10-09T00:05:25;30.00;;;15.95;;
34549;SDS011;66080;52.078;5.626;2023-10-09T00:08:04;31.30;;;15.35;;
34549;SDS011;66080;52.078;5.626;2023-10-09T00:10:30;29.40;;;14.45;;
34549;SDS011;66080;52.078;5.626;2023-10-09T00:13:10;35.65;;;16.08;;
34549;SDS011;66080;52.078;5.626;2023-10-09T00:15:37;30.85;;;17.42;;
34549;SDS011;66080;52.078;5.626;2023-10-09T00:18:03;29.63;;;16.00;;
34549;SDS011;66080;52.078;5.626;2023-10-09T00:20:37;31.45;;;17.05;;
34549;SDS011;66080;52.078;5.626;2023-10-09T00:23:04;37.95;;;17.23;;
34549;SDS011;66080;52.078;5.626;2023-10-09T00:25:40;30.17;;;15.65;;
34549;SDS011;66080;52.078;5.626;2023-10-09T00:28:19;38.00;;;18.05;;
34549;SDS011;66080;52.078;5.626;2023-10-09T00:30:47;33.22;;;15.98;;
34549;SDS011;66080;52.078;5.626;2023-10-09T00:33:13;28.90;;;15.20;;
34549;SDS011;66080;52.078;5.626;2023-10-09T00:35:40;28.20;;;15.15;;
34549;SDS011;66080;52.078;5.626;2023-10-09T00:38:09;27.58;;;14.57;;
34549;SDS011;66080;52.078;5.626;2023-10-09T00:40:44;32.10;;;17.35;;
34549;SDS011;66080;52.078;5.626;2023-10-09T00:43:13;28.15;;;15.68;;
34549;SDS011;66080;52.078;5.626;2023-10-09T00:45:39;29.20;;;14.35;;
34549;SDS011;66080;52.078;5.626;2023-10-09T00:48:06;27.23;;;15.25;;
34549;SDS011;66080;52.078;5.626;2023-10-09T00:50:33;34.75;;;15.73;;
34549;SDS011;66080;52.078;5.626;2023-10-09T00:53:04;55.00;;;36.42;;
34549;SDS011;66080;52.078;5.626;2023-10-09T00:55:37;56.90;;;42.38;;
34549;SDS011;66080;52.078;5.626;2023-10-09T00:58:13;55.13;;;43.33;;
34549;SDS011;66080;52.078;5.626;2023-10-09T01:00:43;57.28;;;38.67;;
34549;SDS011;66080;52.078;5.626;2023-10-09T01:03:09;40.75;;;31.10;;
34549;SDS011;66080;52.078;5.626;2023-10-09T01:05:47;45.05;;;27.75;;
34549;SDS011;66080;52.078;5.626;2023-10-09T01:08:41;37.58;;;25.90;;
34549;SDS011;66080;52.078;5.626;2023-10-09T01:11:07;35.55;;;23.00;;
34549;SDS011;66080;52.078;5.626;2023-10-09T01:13:43;40.30;;;22.63;;
34549;SDS011;66080;52.078;5.626;2023-10-09T01:16:18;34.72;;;19.65;;
34549;SDS011;66080;52.078;5.626;2023-10-09T01:18:53;42.55;;;23.90;;
34549;SDS011;66080;52.078;5.626;2023-10-09T01:21:21;33.08;;;20.25;;
34549;SDS011;66080;52.078;5.626;2023-10-09T01:23:52;43.00;;;20.88;;
34549;SDS011;66080;52.078;5.626;2023-10-09T01:26:30;38.58;;;19.23;;
34549;SDS011;66080;52.078;5.626;2023-10-09T01:28:59;37.40;;;21.23;;
34549;SDS011;66080;52.078;5.626;2023-10-09T01:31:25;43.17;;;21.23;;
34549;SDS011;66080;52.078;5.626;2023-10-09T01:33:51;41.17;;;20.80;;
34549;SDS011;66080;52.078;5.626;2023-10-09T01:36:24;36.85;;;19.02;;
34549;SDS011;66080;52.078;5.626;2023-10-09T01:39:00;37.38;;;19.10;;
34549;SDS011;66080;52.078;5.626;2023-10-09T01:41:46;37.45;;;18.65;;
34549;SDS011;66080;52.078;5.626;2023-10-09T01:44:12;40.88;;;22.30;;
34549;SDS011;66080;52.078;5.626;2023-10-09T01:46:41;38.40;;;20.80;;
34549;SDS011;66080;52.078;5.626;2023-10-09T01:49:07;33.65;;;20.50;;
34549;SDS011;66080;52.078;5.626;2023-10-09T01:51:41;47.45;;;21.77;;
34549;SDS011;66080;52.078;5.626;2023-10-09T01:54:07;37.80;;;20.65;;
34549;SDS011;66080;52.078;5.626;2023-10-09T01:56:34;48.78;;;21.67;;
34549;SDS011;66080;52.078;5.626;2023-10-09T01:59:04;33.58;;;20.60;;
34549;SDS011;66080;52.078;5.626;2023-10-09T02:01:33;43.10;;;19.58;;
34549;SDS011;66080;52.078;5.626;2023-10-09T02:03:59;36.50;;;19.25;;
34549;SDS011;66080;52.078;5.626;2023-10-09T02:06:32;42.42;;;21.48;;
34549;SDS011;66080;52.078;5.626;2023-10-09T02:09:02;41.60;;;21.50;;
34549;SDS011;66080;52.078;5.626;2023-10-09T02:11:31;37.65;;;20.58;;
34549;SDS011;66080;52.078;5.626;2023-10-09T02:14:08;37.45;;;21.10;;
34549;SDS011;66080;52.078;5.626;2023-10-09T02:19:30;32.95;;;19.27;;
34549;SDS011;66080;52.078;5.626;2023-10-09T02:21:59;39.47;;;20.15;;
34549;SDS011;66080;52.078;5.626;2023-10-09T02:24:28;33.17;;;20.08;;
34549;SDS011;66080;52.078;5.626;2023-10-09T02:27:14;36.03;;;20.70;;
34549;SDS011;66080;52.078;5.626;2023-10-09T02:29:58;38.40;;;21.02;;
34549;SDS011;66080;52.078;5.626;2023-10-09T02:32:24;34.25;;;20.60;;
34549;SDS011;66080;52.078;5.626;2023-10-09T02:34:52;33.75;;;19.40;;
34549;SDS011;66080;52.078;5.626;2023-10-09T02:37:19;33.28;;;19.52;;
34549;SDS011;66080;52.078;5.626;2023-10-09T02:39:48;40.65;;;21.17;;
34549;SDS011;66080;52.078;5.626;2023-10-09T02:42:17;39.42;;;19.15;;
34549;SDS011;66080;52.078;5.626;2023-10-09T02:44:52;35.65;;;19.67;;
34549;SDS011;66080;52.078;5.626;2023-10-09T02:47:20;35.47;;;19.80;;
34549;SDS011;66080;52.078;5.626;2023-10-09T02:49:50;29.37;;;18.80;;
34549;SDS011;66080;52.078;5.626;2023-10-09T02:52:18;39.15;;;19.52;;
34549;SDS011;66080;52.078;5.626;2023-10-09T02:54:49;29.23;;;17.75;;
34549;SDS011;66080;52.078;5.626;2023-10-09T02:57:24;30.75;;;17.90;;
34549;SDS011;66080;52.078;5.626;2023-10-09T02:59:53;35.80;;;18.42;;
34549;SDS011;66080;52.078;5.626;2023-10-09T03:02:19;36.03;;;19.48;;
34549;SDS011;66080;52.078;5.626;2023-10-09T03:04:45;28.80;;;17.00;;
34549;SDS011;66080;52.078;5.626;2023-10-09T03:07:11;27.58;;;16.13;;
34549;SDS011;66080;52.078;5.626;2023-10-09T03:09:38;29.58;;;17.85;;
34549;SDS011;66080;52.078;5.626;2023-10-09T03:12:05;27.60;;;16.27;;
34549;SDS011;66080;52.078;5.626;2023-10-09T03:14:35;33.33;;;18.15;;
34549;SDS011;66080;52.078;5.626;2023-10-09T03:17:03;28.92;;;17.60;;
34549;SDS011;66080;52.078;5.626;2023-10-09T03:19:30;39.95;;;18.13;;
34549;SDS011;66080;52.078;5.626;2023-10-09T03:22:02;30.33;;;17.00;;
34549;SDS011;66080;52.078;5.626;2023-10-09T03:24:28;33.78;;;17.80;;
34549;SDS011;66080;52.078;5.626;2023-10-09T03:26:55;26.23;;;16.00;;
34549;SDS011;66080;52.078;5.626;2023-10-09T03:29:22;27.95;;;15.02;;
34549;SDS011;66080;52.078;5.626;2023-10-09T03:31:48;27.02;;;16.40;;
34549;SDS011;66080;52.078;5.626;2023-10-09T03:34:16;30.23;;;16.20;;
34549;SDS011;66080;52.078;5.626;2023-10-09T03:36:43;33.47;;;16.08;;
34549;SDS011;66080;52.078;5.626;2023-10-09T03:39:09;36.90;;;17.58;;
34549;SDS011;66080;52.078;5.626;2023-10-09T03:42:04;35.78;;;18.80;;
34549;SDS011;66080;52.078;5.626;2023-10-09T03:44:33;30.52;;;16.38;;
34549;SDS011;66080;52.078;5.626;2023-10-09T03:47:04;34.08;;;17.70;;
34549;SDS011;66080;52.078;5.626;2023-10-09T03:49:30;27.55;;;16.80;;
34549;SDS011;66080;52.078;5.626;2023-10-09T03:51:56;26.02;;;15.90;;
34549;SDS011;66080;52.078;5.626;2023-10-09T03:54:24;26.92;;;16.95;;
34549;SDS011;66080;52.078;5.626;2023-10-09T03:56:50;35.90;;;17.30;;
34549;SDS011;66080;52.078;5.626;2023-10-09T03:59:20;27.92;;;15.98;;
34549;SDS011;66080;52.078;5.626;2023-10-09T04:01:46;24.00;;;15.38;;
34549;SDS011;66080;52.078;5.626;2023-10-09T04:04:15;26.48;;;15.80;;
34549;SDS011;66080;52.078;5.626;2023-10-09T04:06:41;23.77;;;15.23;;
34549;SDS011;66080;52.078;5.626;2023-10-09T04:09:08;28.17;;;15.77;;
34549;SDS011;66080;52.078;5.626;2023-10-09T04:11:40;30.58;;;15.70;;
34549;SDS011;66080;52.078;5.626;2023-10-09T04:14:14;26.13;;;16.23;;
34549;SDS011;66080;52.078;5.626;2023-10-09T04:16:58;30.85;;;16.80;;
34549;SDS011;66080;52.078;5.626;2023-10-09T04:19:31;27.98;;;16.92;;
34549;SDS011;66080;52.078;5.626;2023-10-09T04:22:27;35.72;;;17.45;;
34549;SDS011;66080;52.078;5.626;2023-10-09T04:24:53;30.48;;;16.42;;
34549;SDS011;66080;52.078;5.626;2023-10-09T04:27:19;32.38;;;18.35;;
34549;SDS011;66080;52.078;5.626;2023-10-09T04:29:51;31.02;;;18.48;;
34549;SDS011;66080;52.078;5.626;2023-10-09T04:32:19;30.63;;;17.80;;
34549;SDS011;66080;52.078;5.626;2023-10-09T04:34:50;23.83;;;16.50;;
34549;SDS011;66080;52.078;5.626;2023-10-09T04:37:36;33.88;;;17.45;;
34549;SDS011;66080;52.078;5.626;2023-10-09T04:40:03;26.38;;;17.23;;
34549;SDS011;66080;52.078;5.626;2023-10-09T04:42:45;30.25;;;17.50;;
34549;SDS011;66080;52.078;5.626;2023-10-09T04:45:23;33.83;;;16.80;;
34549;SDS011;66080;52.078;5.626;2023-10-09T04:48:07;30.60;;;16.40;;
34549;SDS011;66080;52.078;5.626;2023-10-09T04:50:34;24.98;;;16.23;;
34549;SDS011;66080;52.078;5.626;2023-10-09T04:53:00;31.08;;;16.98;;
34549;SDS011;66080;52.078;5.626;2023-10-09T04:55:47;23.75;;;16.13;;
34549;SDS011;66080;52.078;5.626;2023-10-09T04:58:20;29.83;;;15.68;;
34549;SDS011;66080;52.078;5.626;2023-10-09T05:03:24;28.75;;;17.15;;
34549;SDS011;66080;52.078;5.626;2023-10-09T05:06:04;28.30;;;16.77;;
34549;SDS011;66080;52.078;5.626;2023-10-09T05:08:46;29.92;;;15.90;;
34549;SDS011;66080;52.078;5.626;2023-10-09T05:11:13;28.05;;;15.23;;
34549;SDS011;66080;52.078;5.626;2023-10-09T05:13:58;23.65;;;15.38;;
34549;SDS011;66080;52.078;5.626;2023-10-09T05:16:36;29.90;;;16.00;;
34549;SDS011;66080;52.078;5.626;2023-10-09T05:19:09;30.17;;;14.80;;
34549;SDS011;66080;52.078;5.626;2023-10-09T05:21:54;20.45;;;14.48;;
34549;SDS011;66080;52.078;5.626;2023-10-09T05:24:23;35.75;;;16.52;;
34549;SDS011;66080;52.078;5.626;2023-10-09T05:26:51;34.72;;;15.98;;
34549;SDS011;66080;52.078;5.626;2023-10-09T05:29:21;21.20;;;14.18;;
34549;SDS011;66080;52.078;5.626;2023-10-09T05:31:54;33.92;;;16.48;;
34549;SDS011;66080;52.078;5.626;2023-10-09T05:34:38;24.95;;;14.23;;
34549;SDS011;66080;52.078;5.626;2023-10-09T05:37:24;32.35;;;16.45;;
34549;SDS011;66080;52.078;5.626;2023-10-09T05:39:53;21.70;;;15.50;;
34549;SDS011;66080;52.078;5.626;2023-10-09T05:42:25;23.17;;;13.80;;
34549;SDS011;66080;52.078;5.626;2023-10-09T05:45:07;27.48;;;15.73;;
34549;SDS011;66080;52.078;5.626;2023-10-09T05:47:42;26.65;;;13.88;;
34549;SDS011;66080;52.078;5.626;2023-10-09T05:50:32;25.27;;;13.52;;
34549;SDS011;66080;52.078;5.626;2023-10-09T05:52:58;20.90;;;13.23;;
34549;SDS011;66080;52.078;5.626;2023-10-09T05:55:27;20.08;;;12.63;;
34549;SDS011;66080;52.078;5.626;2023-10-09T05:58:25;22.50;;;14.57;;
34549;SDS011;66080;52.078;5.626;2023-10-09T06:01:09;21.58;;;12.88;;
34549;SDS011;66080;52.078;5.626;2023-10-09T06:03:54;28.30;;;15.15;;
34549;SDS011;66080;52.078;5.626;2023-10-09T06:06:21;24.65;;;13.93;;
34549;SDS011;66080;52.078;5.626;2023-10-09T06:09:00;24.45;;;14.85;;
34549;SDS011;66080;52.078;5.626;2023-10-09T06:11:53;27.98;;;14.43;;
34549;SDS011;66080;52.078;5.626;2023-10-09T06:14:19;23.83;;;13.52;;
34549;SDS011;66080;52.078;5.626;2023-10-09T06:16:55;28.85;;;13.63;;
34549;SDS011;66080;52.078;5.626;2023-10-09T06:19:36;28.58;;;12.07;;
34549;SDS011;66080;52.078;5.626;2023-10-09T06:22:08;29.00;;;14.48;;
34549;SDS011;66080;52.078;5.626;2023-10-09T06:24:37;22.02;;;12.85;;
34549;SDS011;66080;52.078;5.626;2023-10-09T06:27:03;25.67;;;13.05;;
34549;SDS011;66080;52.078;5.626;2023-10-09T06:29:29;24.73;;;12.75;;
34549;SDS011;66080;52.078;5.626;2023-10-09T06:32:02;28.05;;;14.07;;
34549;SDS011;66080;52.078;5.626;2023-10-09T06:34:44;20.70;;;12.98;;
34549;SDS011;66080;52.078;5.626;2023-10-09T06:37:11;21.10;;;13.07;;
34549;SDS011;66080;52.078;5.626;2023-10-09T06:39:56;20.75;;;12.55;;
34549;SDS011;66080;52.078;5.626;2023-10-09T06:42:22;25.20;;;12.65;;
34549;SDS011;66080;52.078;5.626;2023-10-09T06:45:04;26.70;;;13.48;;
34549;SDS011;66080;52.078;5.626;2023-10-09T06:47:36;22.40;;;13.10;;
34549;SDS011;66080;52.078;5.626;2023-10-09T06:50:23;26.23;;;13.93;;
34549;SDS011;66080;52.078;5.626;2023-10-09T06:53:11;19.20;;;13.10;;
34549;SDS011;66080;52.078;5.626;2023-10-09T06:55:38;20.38;;;11.70;;
34549;SDS011;66080;52.078;5.626;2023-10-09T06:58:14;24.98;;;13.30;;
34549;SDS011;66080;52.078;5.626;2023-10-09T07:00:47;18.75;;;13.77;;
34549;SDS011;66080;52.078;5.626;2023-10-09T07:03:19;26.48;;;13.52;;
34549;SDS011;66080;52.078;5.626;2023-10-09T07:06:02;25.67;;;11.68;;
34549;SDS011;66080;52.078;5.626;2023-10-09T07:08:29;17.75;;;12.80;;
34549;SDS011;66080;52.078;5.626;2023-10-09T07:11:02;28.77;;;12.77;;
34549;SDS011;66080;52.078;5.626;2023-10-09T07:14:07;19.67;;;11.15;;
34549;SDS011;66080;52.078;5.626;2023-10-09T07:16:54;21.60;;;11.65;;
34549;SDS011;66080;52.078;5.626;2023-10-09T07:19:23;22.00;;;11.63;;
34549;SDS011;66080;52.078;5.626;2023-10-09T07:22:04;17.20;;;11.35;;
34549;SDS011;66080;52.078;5.626;2023-10-09T07:24:41;20.10;;;11.50;;
34549;SDS011;66080;52.078;5.626;2023-10-09T07:27:27;18.35;;;11.60;;
34549;SDS011;66080;52.078;5.626;2023-10-09T07:30:09;20.75;;;12.77;;
34549;SDS011;66080;52.078;5.626;2023-10-09T07:32:54;24.52;;;12.00;;
34549;SDS011;66080;52.078;5.626;2023-10-09T07:35:20;31.67;;;11.27;;
34549;SDS011;66080;52.078;5.626;2023-10-09T07:38:25;22.90;;;10.82;;
34549;SDS011;66080;52.078;5.626;2023-10-09T07:40:54;21.67;;;11.60;;
34549;SDS011;66080;52.078;5.626;2023-10-09T07:43:24;22.80;;;11.45;;
34549;SDS011;66080;52.078;5.626;2023-10-09T07:46:02;23.40;;;11.68;;
34549;SDS011;66080;52.078;5.626;2023-10-09T07:48:46;20.48;;;10.73;;
34549;SDS011;66080;52.078;5.626;2023-10-09T07:51:21;19.30;;;10.25;;
34549;SDS011;66080;52.078;5.626;2023-10-09T07:53:57;19.35;;;11.27;;
34549;SDS011;66080;52.078;5.626;2023-10-09T07:56:32;16.42;;;10.32;;
34549;SDS011;66080;52.078;5.626;2023-10-09T07:59:04;20.50;;;10.35;;
34549;SDS011;66080;52.078;5.626;2023-10-09T08:01:35;15.55;;;9.82;;
34549;SDS011;66080;52.078;5.626;2023-10-09T08:04:01;17.15;;;10.20;;
34549;SDS011;66080;52.078;5.626;2023-10-09T08:06:36;21.20;;;11.30;;
34549;SDS011;66080;52.078;5.626;2023-10-09T08:09:07;15.27;;;10.18;;
34549;SDS011;66080;52.078;5.626;2023-10-09T08:11:44;16.13;;;10.02;;
34549;SDS011;66080;52.078;5.626;2023-10-09T08:14:10;20.75;;;11.07;;
34549;SDS011;66080;52.078;5.626;2023-10-09T08:16:55;22.40;;;10.63;;
34549;SDS011;66080;52.078;5.626;2023-10-09T08:19:41;14.60;;;9.32;;
34549;SDS011;66080;52.078;5.626;2023-10-09T08:22:26;19.85;;;10.02;;
34549;SDS011;66080;52.078;5.626;2023-10-09T08:24:55;15.75;;;10.10;;
34549;SDS011;66080;52.078;5.626;2023-10-09T08:27:22;17.35;;;9.63;;
34549;SDS011;66080;52.078;5.626;2023-10-09T08:30:00;14.30;;;8.55;;
34549;SDS011;66080;52.078;5.626;2023-10-09T08:32:45;17.48;;;10.02;;
34549;SDS011;66080;52.078;5.626;2023-10-09T08:35:28;21.77;;;9.73;;
34549;SDS011;66080;52.078;5.626;2023-10-09T08:37:57;28.10;;;11.38;;
34549;SDS011;66080;52.078;5.626;2023-10-09T08:40:31;19.75;;;10.90;;
34549;SDS011;66080;52.078;5.626;2023-10-09T08:43:08;11.50;;;9.05;;
34549;SDS011;66080;52.078;5.626;2023-10-09T08:45:38;20.60;;;11.05;;
34549;SDS011;66080;52.078;5.626;2023-10-09T08:48:05;22.27;;;9.60;;
34549;SDS011;66080;52.078;5.626;2023-10-09T08:50:31;16.83;;;8.48;;
34549;SDS011;66080;52.078;5.626;2023-10-09T08:52:59;18.05;;;9.02;;
34549;SDS011;66080;52.078;5.626;2023-10-09T08:55:25;16.45;;;8.90;;
34549;SDS011;66080;52.078;5.626;2023-10-09T08:57:52;19.65;;;9.40;;
34549;SDS011;66080;52.078;5.626;2023-10-09T09:00:18;30.33;;;10.82;;
34549;SDS011;66080;52.078;5.626;2023-10-09T09:02:52;20.35;;;9.45;;
34549;SDS011;66080;52.078;5.626;2023-10-09T09:05:19;21.13;;;10.43;;
34549;SDS011;66080;52.078;5.626;2023-10-09T09:07:53;22.23;;;8.82;;
34549;SDS011;66080;52.078;5.626;2023-10-09T09:10:30;16.30;;;9.52;;
34549;SDS011;66080;52.078;5.626;2023-10-09T09:13:01;19.27;;;9.73;;
34549;SDS011;66080;52.078;5.626;2023-10-09T09:15:29;12.20;;;7.57;;
34549;SDS011;66080;52.078;5.626;2023-10-09T09:18:05;18.13;;;8.77;;
34549;SDS011;66080;52.078;5.626;2023-10-09T09:20:31;17.80;;;10.07;;
34549;SDS011;66080;52.078;5.626;2023-10-09T09:23:05;12.68;;;8.90;;
34549;SDS011;66080;52.078;5.626;2023-10-09T09:25:46;20.95;;;9.52;;
34549;SDS011;66080;52.078;5.626;2023-10-09T09:28:13;17.25;;;8.70;;
34549;SDS011;66080;52.078;5.626;2023-10-09T09:30:45;13.68;;;8.35;;
34549;SDS011;66080;52.078;5.626;2023-10-09T09:33:25;29.00;;;9.23;;
34549;SDS011;66080;52.078;5.626;2023-10-09T09:36:08;13.85;;;8.75;;
34549;SDS011;66080;52.078;5.626;2023-10-09T09:38:37;14.52;;;8.40;;
34549;SDS011;66080;52.078;5.626;2023-10-09T09:41:07;14.50;;;7.30;;
34549;SDS011;66080;52.078;5.626;2023-10-09T09:43:34;18.15;;;8.18;;
34549;SDS011;66080;52.078;5.626;2023-10-09T09:46:00;17.23;;;8.88;;
34549;SDS011;66080;52.078;5.626;2023-10-09T09:48:32;16.88;;;7.97;;
34549;SDS011;66080;52.078;5.626;2023-10-09T09:51:04;11.73;;;7.88;;
34549;SDS011;66080;52.078;5.626;2023-10-09T09:53:33;18.58;;;9.38;;
34549;SDS011;66080;52.078;5.626;2023-10-09T09:56:00;18.98;;;9.10;;
34549;SDS011;66080;52.078;5.626;2023-10-09T09:58:27;12.23;;;7.15;;
34549;SDS011;66080;52.078;5.626;2023-10-09T10:01:07;21.42;;;6.72;;
34549;SDS011;66080;52.078;5.626;2023-10-09T10:03:49;11.75;;;6.80;;
34549;SDS011;66080;52.078;5.626;2023-10-09T10:06:17;15.57;;;7.05;;
34549;SDS011;66080;52.078;5.626;2023-10-09T10:08:44;18.05;;;6.55;;
34549;SDS011;66080;52.078;5.626;2023-10-09T10:14:00;10.85;;;6.55;;
34549;SDS011;66080;52.078;5.626;2023-10-09T10:16:31;15.57;;;6.90;;
34549;SDS011;66080;52.078;5.626;2023-10-09T10:19:01;19.20;;;7.20;;
34549;SDS011;66080;52.078;5.626;2023-10-09T10:21:34;16.67;;;7.28;;
34549;SDS011;66080;52.078;5.626;2023-10-09T10:24:14;16.15;;;7.03;;
34549;SDS011;66080;52.078;5.626;2023-10-09T10:29:43;17.38;;;6.50;;
34549;SDS011;66080;52.078;5.626;2023-10-09T10:32:11;16.33;;;6.88;;
34549;SDS011;66080;52.078;5.626;2023-10-09T10:37:34;13.68;;;6.88;;
34549;SDS011;66080;52.078;5.626;2023-10-09T10:40:08;10.27;;;6.40;;
34549;SDS011;66080;52.078;5.626;2023-10-09T10:43:03;17.05;;;5.88;;
34549;SDS011;66080;52.078;5.626;2023-10-09T10:45:38;11.90;;;6.00;;
34549;SDS011;66080;52.078;5.626;2023-10-09T10:48:10;12.68;;;6.35;;
34549;SDS011;66080;52.078;5.626;2023-10-09T10:51:03;14.75;;;6.63;;
34549;SDS011;66080;52.078;5.626;2023-10-09T10:53:30;12.52;;;6.13;;
34549;SDS011;66080;52.078;5.626;2023-10-09T10:56:14;12.30;;;5.80;;
34549;SDS011;66080;52.078;5.626;2023-10-09T10:58:40;10.75;;;5.88;;
34549;SDS011;66080;52.078;5.626;2023-10-09T11:01:19;17.42;;;5.25;;
34549;SDS011;66080;52.078;5.626;2023-10-09T11:03:49;15.05;;;5.80;;
34549;SDS011;66080;52.078;5.626;2023-10-09T11:06:27;11.13;;;6.07;;
34549;SDS011;66080;52.078;5.626;2023-10-09T11:09:08;9.85;;;5.72;;
34549;SDS011;66080;52.078;5.626;2023-10-09T11:11:46;18.00;;;6.97;;
34549;SDS011;66080;52.078;5.626;2023-10-09T11:14:12;13.05;;;6.53;;
34549;SDS011;66080;52.078;5.626;2023-10-09T11:16:39;8.35;;;5.00;;
34549;SDS011;66080;52.078;5.626;2023-10-09T11:19:12;14.27;;;6.07;;
34549;SDS011;66080;52.078;5.626;2023-10-09T11:21:57;13.40;;;5.20;;
34549;SDS011;66080;52.078;5.626;2023-10-09T11:24:33;16.08;;;5.55;;
34549;SDS011;66080;52.078;5.626;2023-10-09T11:26:59;23.05;;;6.88;;
34549;SDS011;66080;52.078;5.626;2023-10-09T11:29:31;11.23;;;5.55;;
34549;SDS011;66080;52.078;5.626;2023-10-09T11:32:17;9.45;;;4.78;;
34549;SDS011;66080;52.078;5.626;2023-10-09T11:34:44;12.93;;;5.15;;
34549;SDS011;66080;52.078;5.626;2023-10-09T11:37:20;19.77;;;6.53;;
34549;SDS011;66080;52.078;5.626;2023-10-09T11:39:56;12.55;;;5.47;;
34549;SDS011;66080;52.078;5.626;2023-10-09T11:42:22;9.10;;;4.90;;
34549;SDS011;66080;52.078;5.626;2023-10-09T11:45:03;10.13;;;5.50;;
34549;SDS011;66080;52.078;5.626;2023-10-09T11:47:44;13.43;;;5.43;;
34549;SDS011;66080;52.078;5.626;2023-10-09T11:50:19;13.20;;;5.50;;
34549;SDS011;66080;52.078;5.626;2023-10-09T11:52:56;11.82;;;5.18;;
34549;SDS011;66080;52.078;5.626;2023-10-09T11:55:43;9.18;;;5.15;;
34549;SDS011;66080;52.078;5.626;2023-10-09T11:58:13;12.98;;;5.22;;
34549;SDS011;66080;52.078;5.626;2023-10-09T12:00:39;11.68;;;5.75;;
34549;SDS011;66080;52.078;5.626;2023-10-09T12:03:12;7.95;;;5.03;;
34549;SDS011;66080;52.078;5.626;2023-10-09T12:05:39;8.77;;;4.65;;
34549;SDS011;66080;52.078;5.626;2023-10-09T12:08:09;11.05;;;5.50;;
34549;SDS011;66080;52.078;5.626;2023-10-09T12:10:35;17.25;;;5.72;;
34549;SDS011;66080;52.078;5.626;2023-10-09T12:13:03;17.77;;;5.45;;
34549;SDS011;66080;52.078;5.626;2023-10-09T12:15:29;18.83;;;5.50;;
34549;SDS011;66080;52.078;5.626;2023-10-09T12:18:03;26.98;;;7.47;;
34549;SDS011;66080;52.078;5.626;2023-10-09T12:20:29;19.00;;;5.25;;
34549;SDS011;66080;52.078;5.626;2023-10-09T12:22:56;11.68;;;4.93;;
34549;SDS011;66080;52.078;5.626;2023-10-09T12:25:23;7.72;;;4.70;;
34549;SDS011;66080;52.078;5.626;2023-10-09T12:27:48;11.13;;;5.63;;
34549;SDS011;66080;52.078;5.626;2023-10-09T12:30:14;9.35;;;4.40;;
34549;SDS011;66080;52.078;5.626;2023-10-09T12:32:41;15.38;;;4.97;;
34549;SDS011;66080;52.078;5.626;2023-10-09T12:35:07;10.48;;;5.05;;
34549;SDS011;66080;52.078;5.626;2023-10-09T12:37:42;16.10;;;5.55;;
34549;SDS011;66080;52.078;5.626;2023-10-09T12:40:08;9.60;;;4.88;;
34549;SDS011;66080;52.078;5.626;2023-10-09T12:42:35;15.65;;;5.13;;
34549;SDS011;66080;52.078;5.626;2023-10-09T12:45:02;12.13;;;4.47;;
34549;SDS011;66080;52.078;5.626;2023-10-09T12:47:33;13.77;;;5.97;;
34549;SDS011;66080;52.078;5.626;2023-10-09T12:50:03;11.40;;;4.75;;
34549;SDS011;66080;52.078;5.626;2023-10-09T12:52:34;11.90;;;5.85;;
34549;SDS011;66080;52.078;5.626;2023-10-09T12:55:02;11.23;;;4.63;;
34549;SDS011;66080;52.078;5.626;2023-10-09T12:57:32;10.80;;;4.88;;
34549;SDS011;66080;52.078;5.626;2023-10-09T12:59:58;5.80;;;4.05;;
34549;SDS011;66080;52.078;5.626;2023-10-09T13:02:24;9.35;;;5.22;;
34549;SDS011;66080;52.078;5.626;2023-10-09T13:04:54;10.18;;;5.28;;
34549;SDS011;66080;52.078;5.626;2023-10-09T13:07:20;16.83;;;4.63;;
34549;SDS011;66080;52.078;5.626;2023-10-09T13:09:47;13.45;;;5.72;;
34549;SDS011;66080;52.078;5.626;2023-10-09T13:12:33;16.02;;;5.35;;
34549;SDS011;66080;52.078;5.626;2023-10-09T13:15:03;12.35;;;6.20;;
34549;SDS011;66080;52.078;5.626;2023-10-09T13:20:01;8.05;;;4.88;;
34549;SDS011;66080;52.078;5.626;2023-10-09T13:22:28;13.18;;;5.82;;
34549;SDS011;66080;52.078;5.626;2023-10-09T13:24:55;18.48;;;6.22;;
34549;SDS011;66080;52.078;5.626;2023-10-09T13:27:28;17.90;;;6.55;;
34549;SDS011;66080;52.078;5.626;2023-10-09T13:32:33;10.88;;;6.03;;
34549;SDS011;66080;52.078;5.626;2023-10-09T13:35:01;11.50;;;5.25;;
34549;SDS011;66080;52.078;5.626;2023-10-09T13:37:28;9.55;;;4.60;;
34549;SDS011;66080;52.078;5.626;2023-10-09T13:39:57;13.05;;;6.90;;
34549;SDS011;66080;52.078;5.626;2023-10-09T13:42:23;17.67;;;6.45;;
34549;SDS011;66080;52.078;5.626;2023-10-09T13:44:51;10.57;;;5.30;;
34549;SDS011;66080;52.078;5.626;2023-10-09T13:47:19;8.35;;;4.18;;
34549;SDS011;66080;52.078;5.626;2023-10-09T13:49:46;6.95;;;4.88;;
34549;SDS011;66080;52.078;5.626;2023-10-09T13:52:15;12.05;;;4.80;;
34549;SDS011;66080;52.078;5.626;2023-10-09T13:54:43;15.13;;;5.65;;
34549;SDS011;66080;52.078;5.626;2023-10-09T13:57:13;11.68;;;5.82;;
34549;SDS011;66080;52.078;5.626;2023-10-09T13:59:40;10.82;;;5.90;;
34549;SDS011;66080;52.078;5.626;2023-10-09T14:02:14;10.93;;;5.20;;
34549;SDS011;66080;52.078;5.626;2023-10-09T14:04:46;13.10;;;5.22;;
34549;SDS011;66080;52.078;5.626;2023-10-09T14:07:12;11.68;;;4.68;;
34549;SDS011;66080;52.078;5.626;2023-10-09T14:09:41;8.13;;;5.40;;
34549;SDS011;66080;52.078;5.626;2023-10-09T14:12:31;9.23;;;5.03;;
34549;SDS011;66080;52.078;5.626;2023-10-09T14:14:59;10.35;;;5.45;;
34549;SDS011;66080;52.078;5.626;2023-10-09T14:17:28;8.25;;;5.15;;
34549;SDS011;66080;52.078;5.626;2023-10-09T14:19:55;15.05;;;7.63;;
34549;SDS011;66080;52.078;5.626;2023-10-09T14:22:26;14.98;;;5.72;;
34549;SDS011;66080;52.078;5.626;2023-10-09T14:24:52;18.92;;;5.95;;
34549;SDS011;66080;52.078;5.626;2023-10-09T14:27:22;14.35;;;5.38;;
34549;SDS011;66080;52.078;5.626;2023-10-09T14:29:52;14.43;;;5.10;;
34549;SDS011;66080;52.078;5.626;2023-10-09T14:32:21;12.93;;;4.95;;
34549;SDS011;66080;52.078;5.626;2023-10-09T14:35:08;14.15;;;5.18;;
34549;SDS011;66080;52.078;5.626;2023-10-09T14:37:38;16.38;;;5.88;;
34549;SDS011;66080;52.078;5.626;2023-10-09T14:40:04;10.63;;;5.75;;
34549;SDS011;66080;52.078;5.626;2023-10-09T14:42:37;9.73;;;4.38;;
34549;SDS011;66080;52.078;5.626;2023-10-09T14:45:03;10.95;;;5.80;;
34549;SDS011;66080;52.078;5.626;2023-10-09T14:47:33;14.82;;;6.13;;
34549;SDS011;66080;52.078;5.626;2023-10-09T14:49:59;15.20;;;5.25;;
34549;SDS011;66080;52.078;5.626;2023-10-09T14:52:26;11.45;;;5.05;;
34549;SDS011;66080;52.078;5.626;2023-10-09T14:54:52;20.58;;;6.35;;
34549;SDS011;66080;52.078;5.626;2023-10-09T14:57:18;19.08;;;6.80;;
34549;SDS011;66080;52.078;5.626;2023-10-09T14:59:44;13.80;;;4.68;;
34549;SDS011;66080;52.078;5.626;2023-10-09T15:02:11;14.73;;;5.75;;
34549;SDS011;66080;52.078;5.626;2023-10-09T15:04:37;12.10;;;5.03;;
34549;SDS011;66080;52.078;5.626;2023-10-09T15:07:03;13.10;;;5.45;;
34549;SDS011;66080;52.078;5.626;2023-10-09T15:09:33;13.30;;;4.65;;
34549;SDS011;66080;52.078;5.626;2023-10-09T15:12:01;9.30;;;5.60;;
34549;SDS011;66080;52.078;5.626;2023-10-09T15:14:27;13.20;;;5.70;;
34549;SDS011;66080;52.078;5.626;2023-10-09T15:16:53;13.00;;;5.22;;